sensor_id;sensor_type;location;lat;lon;timestamp;P1;durP1;ratioP1;P2;durP2;ratioP2
3347;SDS011;1687;49.540;8.574;2023-04-06T00:01:37;17.80;;;6.80;;
3347;SDS011;1687;49.540;8.574;2023-04-06T00:04:03;18.17;;;8.63;;
3347;SDS011;1687;49.540;8.574;2023-04-06T00:06:29;14.23;;;6.57;;
3347;SDS011;1687;49.540;8.574;2023-04-06T00:08:55;15.23;;;6.67;;
3347;SDS011;1687;49.540;8.574;2023-04-06T00:11:21;15.17;;;7.30;;
3347;SDS011;1687;49.540;8.574;2023-04-06T00:13:47;15.93;;;6.53;;
3347;SDS011;1687;49.540;8.574;2023-04-06T00:16:13;12.77;;;6.33;;
3347;SDS011;1687;49.540;8.574;2023-04-06T00:18:38;14.27;;;7.30;;
3347;SDS011;1687;49.540;8.574;2023-04-06T00:21:04;18.57;;;7.00;;
3347;SDS011;1687;49.540;8.574;2023-04-06T00:23:30;12.37;;;6.20;;
3347;SDS011;1687;49.540;8.574;2023-04-06T00:25:56;11.27;;;5.20;;
3347;SDS011;1687;49.540;8.574;2023-04-06T00:28:21;14.00;;;6.63;;
3347;SDS011;1687;49.540;8.574;2023-04-06T00:30:51;13.10;;;6.03;;
3347;SDS011;1687;49.540;8.574;2023-04-06T00:33:18;8.10;;;4.23;;
3347;SDS011;1687;49.540;8.574;2023-04-06T00:35:44;7.37;;;4.30;;
3347;SDS011;1687;49.540;8.574;2023-04-06T00:38:10;8.83;;;4.30;;
3347;SDS011;1687;49.540;8.574;2023-04-06T00:40:36;9.20;;;5.37;;
3347;SDS011;1687;49.540;8.574;2023-04-06T00:43:04;14.03;;;6.07;;
3347;SDS011;1687;49.540;8.574;2023-04-06T00:45:34;9.83;;;4.80;;
3347;SDS011;1687;49.540;8.574;2023-04-06T00:48:00;8.27;;;4.37;;
3347;SDS011;1687;49.540;8.574;2023-04-06T00:50:29;23.73;;;5.13;;
3347;SDS011;1687;49.540;8.574;2023-04-06T00:52:55;31.80;;;5.00;;
3347;SDS011;1687;49.540;8.574;2023-04-06T00:55:21;8.80;;;5.03;;
3347;SDS011;1687;49.540;8.574;2023-04-06T00:57:46;8.53;;;4.63;;
3347;SDS011;1687;49.540;8.574;2023-04-06T01:00:12;11.03;;;4.70;;
3347;SDS011;1687;49.540;8.574;2023-04-06T01:02:39;13.90;;;6.40;;
3347;SDS011;1687;49.540;8.574;2023-04-06T01:05:05;11.57;;;6.50;;
3347;SDS011;1687;49.540;8.574;2023-04-06T01:07:31;9.93;;;4.97;;
3347;SDS011;1687;49.540;8.574;2023-04-06T01:09:57;14.60;;;6.37;;
3347;SDS011;1687;49.540;8.574;2023-04-06T01:12:23;9.33;;;5.73;;
3347;SDS011;1687;49.540;8.574;2023-04-06T01:14:49;10.43;;;5.40;;
3347;SDS011;1687;49.540;8.574;2023-04-06T01:17:15;15.53;;;5.30;;
3347;SDS011;1687;49.540;8.574;2023-04-06T01:19:41;12.87;;;4.80;;
3347;SDS011;1687;49.540;8.574;2023-04-06T01:22:07;15.27;;;6.40;;
3347;SDS011;1687;49.540;8.574;2023-04-06T01:24:32;13.10;;;5.87;;
3347;SDS011;1687;49.540;8.574;2023-04-06T01:26:58;11.90;;;6.00;;
3347;SDS011;1687;49.540;8.574;2023-04-06T01:29:25;13.20;;;5.63;;
3347;SDS011;1687;49.540;8.574;2023-04-06T01:31:51;10.80;;;5.60;;
3347;SDS011;1687;49.540;8.574;2023-04-06T01:34:16;10.43;;;5.40;;
3347;SDS011;1687;49.540;8.574;2023-04-06T01:36:42;10.87;;;5.60;;
3347;SDS011;1687;49.540;8.574;2023-04-06T01:39:08;10.57;;;4.90;;
3347;SDS011;1687;49.540;8.574;2023-04-06T01:41:34;16.37;;;5.37;;
3347;SDS011;1687;49.540;8.574;2023-04-06T01:44:01;11.23;;;5.23;;
3347;SDS011;1687;49.540;8.574;2023-04-06T01:46:27;11.07;;;5.77;;
3347;SDS011;1687;49.540;8.574;2023-04-06T01:48:52;10.93;;;5.30;;
3347;SDS011;1687;49.540;8.574;2023-04-06T01:51:18;14.00;;;6.47;;
3347;SDS011;1687;49.540;8.574;2023-04-06T01:53:44;16.33;;;6.80;;
3347;SDS011;1687;49.540;8.574;2023-04-06T01:56:10;18.13;;;7.20;;
3347;SDS011;1687;49.540;8.574;2023-04-06T01:58:35;11.73;;;4.97;;
3347;SDS011;1687;49.540;8.574;2023-04-06T02:01:01;10.27;;;5.90;;
3347;SDS011;1687;49.540;8.574;2023-04-06T02:03:27;10.30;;;5.30;;
3347;SDS011;1687;49.540;8.574;2023-04-06T02:05:52;11.00;;;5.33;;
3347;SDS011;1687;49.540;8.574;2023-04-06T02:08:18;13.33;;;5.87;;
3347;SDS011;1687;49.540;8.574;2023-04-06T02:10:44;14.53;;;6.90;;
3347;SDS011;1687;49.540;8.574;2023-04-06T02:13:09;15.00;;;4.70;;
3347;SDS011;1687;49.540;8.574;2023-04-06T02:15:35;11.10;;;5.10;;
3347;SDS011;1687;49.540;8.574;2023-04-06T02:18:01;10.40;;;5.43;;
3347;SDS011;1687;49.540;8.574;2023-04-06T02:20:26;11.63;;;4.63;;
3347;SDS011;1687;49.540;8.574;2023-04-06T02:22:52;11.63;;;5.27;;
3347;SDS011;1687;49.540;8.574;2023-04-06T02:25:18;15.10;;;5.13;;
3347;SDS011;1687;49.540;8.574;2023-04-06T02:27:43;12.67;;;5.60;;
3347;SDS011;1687;49.540;8.574;2023-04-06T02:30:09;9.90;;;5.77;;
3347;SDS011;1687;49.540;8.574;2023-04-06T02:32:35;16.80;;;6.93;;
3347;SDS011;1687;49.540;8.574;2023-04-06T02:35:01;8.00;;;4.97;;
3347;SDS011;1687;49.540;8.574;2023-04-06T02:37:27;13.60;;;6.20;;
3347;SDS011;1687;49.540;8.574;2023-04-06T02:39:52;7.00;;;4.17;;
3347;SDS011;1687;49.540;8.574;2023-04-06T02:42:18;11.93;;;5.57;;
3347;SDS011;1687;49.540;8.574;2023-04-06T02:44:44;8.80;;;5.10;;
3347;SDS011;1687;49.540;8.574;2023-04-06T02:47:10;13.20;;;5.40;;
3347;SDS011;1687;49.540;8.574;2023-04-06T02:49:35;7.87;;;4.50;;
3347;SDS011;1687;49.540;8.574;2023-04-06T02:52:01;7.93;;;4.40;;
3347;SDS011;1687;49.540;8.574;2023-04-06T02:54:28;10.07;;;4.57;;
3347;SDS011;1687;49.540;8.574;2023-04-06T02:56:53;7.93;;;4.80;;
3347;SDS011;1687;49.540;8.574;2023-04-06T02:59:19;7.00;;;3.50;;
3347;SDS011;1687;49.540;8.574;2023-04-06T03:01:45;6.23;;;4.00;;
3347;SDS011;1687;49.540;8.574;2023-04-06T03:04:10;8.30;;;4.93;;
3347;SDS011;1687;49.540;8.574;2023-04-06T03:06:36;9.10;;;5.33;;
3347;SDS011;1687;49.540;8.574;2023-04-06T03:09:02;7.17;;;3.77;;
3347;SDS011;1687;49.540;8.574;2023-04-06T03:11:28;9.23;;;4.30;;
3347;SDS011;1687;49.540;8.574;2023-04-06T03:13:54;6.50;;;3.20;;
3347;SDS011;1687;49.540;8.574;2023-04-06T03:16:20;11.17;;;4.10;;
3347;SDS011;1687;49.540;8.574;2023-04-06T03:18:45;10.80;;;5.67;;
3347;SDS011;1687;49.540;8.574;2023-04-06T03:21:12;10.70;;;4.70;;
3347;SDS011;1687;49.540;8.574;2023-04-06T03:23:40;11.57;;;4.93;;
3347;SDS011;1687;49.540;8.574;2023-04-06T03:26:06;9.10;;;4.73;;
3347;SDS011;1687;49.540;8.574;2023-04-06T03:28:32;9.10;;;4.57;;
3347;SDS011;1687;49.540;8.574;2023-04-06T03:30:57;9.53;;;4.17;;
3347;SDS011;1687;49.540;8.574;2023-04-06T03:33:23;10.10;;;5.13;;
3347;SDS011;1687;49.540;8.574;2023-04-06T03:35:51;7.93;;;4.10;;
3347;SDS011;1687;49.540;8.574;2023-04-06T03:38:18;8.13;;;4.40;;
3347;SDS011;1687;49.540;8.574;2023-04-06T03:40:44;9.30;;;4.87;;
3347;SDS011;1687;49.540;8.574;2023-04-06T03:43:09;11.10;;;6.03;;
3347;SDS011;1687;49.540;8.574;2023-04-06T03:45:35;17.30;;;5.10;;
3347;SDS011;1687;49.540;8.574;2023-04-06T03:48:01;9.33;;;3.83;;
3347;SDS011;1687;49.540;8.574;2023-04-06T03:50:26;8.90;;;4.73;;
3347;SDS011;1687;49.540;8.574;2023-04-06T03:52:52;10.73;;;5.23;;
3347;SDS011;1687;49.540;8.574;2023-04-06T03:55:18;11.63;;;6.57;;
3347;SDS011;1687;49.540;8.574;2023-04-06T03:57:44;11.60;;;7.40;;
3347;SDS011;1687;49.540;8.574;2023-04-06T04:00:10;17.87;;;6.50;;
3347;SDS011;1687;49.540;8.574;2023-04-06T04:02:36;15.33;;;7.80;;
3347;SDS011;1687;49.540;8.574;2023-04-06T04:05:02;32.33;;;7.70;;
3347;SDS011;1687;49.540;8.574;2023-04-06T04:07:28;16.00;;;7.20;;
3347;SDS011;1687;49.540;8.574;2023-04-06T04:09:54;13.20;;;6.20;;
3347;SDS011;1687;49.540;8.574;2023-04-06T04:12:19;29.13;;;6.60;;
3347;SDS011;1687;49.540;8.574;2023-04-06T04:14:45;15.23;;;6.37;;
3347;SDS011;1687;49.540;8.574;2023-04-06T04:17:11;22.30;;;7.63;;
3347;SDS011;1687;49.540;8.574;2023-04-06T04:19:36;17.30;;;7.03;;
3347;SDS011;1687;49.540;8.574;2023-04-06T04:22:02;20.43;;;7.70;;
3347;SDS011;1687;49.540;8.574;2023-04-06T04:24:29;16.10;;;8.37;;
3347;SDS011;1687;49.540;8.574;2023-04-06T04:26:55;15.50;;;6.37;;
3347;SDS011;1687;49.540;8.574;2023-04-06T04:29:21;14.13;;;6.37;;
3347;SDS011;1687;49.540;8.574;2023-04-06T04:31:47;13.67;;;6.83;;
3347;SDS011;1687;49.540;8.574;2023-04-06T04:34:17;15.90;;;9.30;;
3347;SDS011;1687;49.540;8.574;2023-04-06T04:36:48;15.17;;;7.77;;
3347;SDS011;1687;49.540;8.574;2023-04-06T04:39:14;15.40;;;6.87;;
3347;SDS011;1687;49.540;8.574;2023-04-06T04:41:40;14.63;;;6.27;;
3347;SDS011;1687;49.540;8.574;2023-04-06T04:44:05;14.93;;;8.20;;
3347;SDS011;1687;49.540;8.574;2023-04-06T04:46:31;11.80;;;7.00;;
3347;SDS011;1687;49.540;8.574;2023-04-06T04:48:57;14.60;;;7.40;;
3347;SDS011;1687;49.540;8.574;2023-04-06T04:51:22;19.00;;;8.13;;
3347;SDS011;1687;49.540;8.574;2023-04-06T04:53:49;15.47;;;7.03;;
3347;SDS011;1687;49.540;8.574;2023-04-06T04:56:15;16.43;;;8.90;;
3347;SDS011;1687;49.540;8.574;2023-04-06T04:58:40;22.77;;;8.27;;
3347;SDS011;1687;49.540;8.574;2023-04-06T05:01:07;21.83;;;9.30;;
3347;SDS011;1687;49.540;8.574;2023-04-06T05:03:33;21.80;;;8.03;;
3347;SDS011;1687;49.540;8.574;2023-04-06T05:06:00;26.73;;;8.50;;
3347;SDS011;1687;49.540;8.574;2023-04-06T05:08:26;20.00;;;8.80;;
3347;SDS011;1687;49.540;8.574;2023-04-06T05:10:52;12.20;;;7.00;;
3347;SDS011;1687;49.540;8.574;2023-04-06T05:13:18;15.60;;;8.53;;
3347;SDS011;1687;49.540;8.574;2023-04-06T05:15:43;12.67;;;6.30;;
3347;SDS011;1687;49.540;8.574;2023-04-06T05:18:09;24.03;;;8.63;;
3347;SDS011;1687;49.540;8.574;2023-04-06T05:20:35;17.20;;;6.27;;
3347;SDS011;1687;49.540;8.574;2023-04-06T05:23:02;13.67;;;7.57;;
3347;SDS011;1687;49.540;8.574;2023-04-06T05:25:28;13.47;;;6.57;;
3347;SDS011;1687;49.540;8.574;2023-04-06T05:27:53;13.73;;;7.23;;
3347;SDS011;1687;49.540;8.574;2023-04-06T05:30:19;16.50;;;7.70;;
3347;SDS011;1687;49.540;8.574;2023-04-06T05:32:46;13.93;;;6.60;;
3347;SDS011;1687;49.540;8.574;2023-04-06T05:35:12;18.63;;;7.20;;
3347;SDS011;1687;49.540;8.574;2023-04-06T05:37:38;11.23;;;6.50;;
3347;SDS011;1687;49.540;8.574;2023-04-06T05:40:04;15.37;;;6.97;;
3347;SDS011;1687;49.540;8.574;2023-04-06T05:42:40;16.63;;;6.77;;
3347;SDS011;1687;49.540;8.574;2023-04-06T05:45:07;11.60;;;6.20;;
3347;SDS011;1687;49.540;8.574;2023-04-06T05:47:34;14.70;;;6.50;;
3347;SDS011;1687;49.540;8.574;2023-04-06T05:50:00;12.83;;;7.20;;
3347;SDS011;1687;49.540;8.574;2023-04-06T05:52:26;12.33;;;6.60;;
3347;SDS011;1687;49.540;8.574;2023-04-06T05:54:52;9.80;;;6.23;;
3347;SDS011;1687;49.540;8.574;2023-04-06T05:57:17;26.57;;;7.90;;
3347;SDS011;1687;49.540;8.574;2023-04-06T05:59:43;27.73;;;7.37;;
3347;SDS011;1687;49.540;8.574;2023-04-06T06:02:09;12.70;;;6.23;;
3347;SDS011;1687;49.540;8.574;2023-04-06T06:04:34;13.80;;;6.40;;
3347;SDS011;1687;49.540;8.574;2023-04-06T06:07:00;15.57;;;7.37;;
3347;SDS011;1687;49.540;8.574;2023-04-06T06:09:26;12.50;;;6.43;;
3347;SDS011;1687;49.540;8.574;2023-04-06T06:11:51;15.80;;;8.03;;
3347;SDS011;1687;49.540;8.574;2023-04-06T06:14:17;19.70;;;9.40;;
3347;SDS011;1687;49.540;8.574;2023-04-06T06:16:43;15.47;;;7.90;;
3347;SDS011;1687;49.540;8.574;2023-04-06T06:19:08;12.10;;;7.47;;
3347;SDS011;1687;49.540;8.574;2023-04-06T06:21:34;10.30;;;6.77;;
3347;SDS011;1687;49.540;8.574;2023-04-06T06:24:00;18.53;;;7.60;;
3347;SDS011;1687;49.540;8.574;2023-04-06T06:26:26;14.03;;;7.17;;
3347;SDS011;1687;49.540;8.574;2023-04-06T06:28:52;11.97;;;6.30;;
3347;SDS011;1687;49.540;8.574;2023-04-06T06:31:18;22.53;;;7.97;;
3347;SDS011;1687;49.540;8.574;2023-04-06T06:33:47;14.57;;;7.30;;
3347;SDS011;1687;49.540;8.574;2023-04-06T06:36:16;31.90;;;8.90;;
3347;SDS011;1687;49.540;8.574;2023-04-06T06:38:42;14.53;;;8.27;;
3347;SDS011;1687;49.540;8.574;2023-04-06T06:41:09;17.93;;;9.03;;
3347;SDS011;1687;49.540;8.574;2023-04-06T06:43:34;16.07;;;7.60;;
3347;SDS011;1687;49.540;8.574;2023-04-06T06:46:00;17.53;;;7.73;;
3347;SDS011;1687;49.540;8.574;2023-04-06T06:48:26;17.47;;;8.30;;
3347;SDS011;1687;49.540;8.574;2023-04-06T06:50:52;18.07;;;8.13;;
3347;SDS011;1687;49.540;8.574;2023-04-06T06:53:17;17.00;;;8.23;;
3347;SDS011;1687;49.540;8.574;2023-04-06T06:55:43;14.13;;;7.13;;
3347;SDS011;1687;49.540;8.574;2023-04-06T06:58:09;17.97;;;8.57;;
3347;SDS011;1687;49.540;8.574;2023-04-06T07:00:35;26.20;;;9.30;;
3347;SDS011;1687;49.540;8.574;2023-04-06T07:03:01;16.17;;;8.93;;
3347;SDS011;1687;49.540;8.574;2023-04-06T07:05:26;20.03;;;9.37;;
3347;SDS011;1687;49.540;8.574;2023-04-06T07:07:52;16.97;;;8.83;;
3347;SDS011;1687;49.540;8.574;2023-04-06T07:10:19;19.90;;;8.40;;
3347;SDS011;1687;49.540;8.574;2023-04-06T07:12:45;14.40;;;8.00;;
3347;SDS011;1687;49.540;8.574;2023-04-06T07:15:11;20.90;;;9.97;;
3347;SDS011;1687;49.540;8.574;2023-04-06T07:17:37;16.97;;;9.27;;
3347;SDS011;1687;49.540;8.574;2023-04-06T07:20:02;20.40;;;9.80;;
3347;SDS011;1687;49.540;8.574;2023-04-06T07:22:28;14.07;;;8.03;;
3347;SDS011;1687;49.540;8.574;2023-04-06T07:24:55;19.80;;;7.93;;
3347;SDS011;1687;49.540;8.574;2023-04-06T07:27:21;12.97;;;6.77;;
3347;SDS011;1687;49.540;8.574;2023-04-06T07:29:47;22.50;;;9.00;;
3347;SDS011;1687;49.540;8.574;2023-04-06T07:32:13;23.40;;;8.17;;
3347;SDS011;1687;49.540;8.574;2023-04-06T07:34:38;21.87;;;9.10;;
3347;SDS011;1687;49.540;8.574;2023-04-06T07:37:04;17.77;;;9.00;;
3347;SDS011;1687;49.540;8.574;2023-04-06T07:39:30;23.30;;;11.27;;
3347;SDS011;1687;49.540;8.574;2023-04-06T07:41:56;21.97;;;9.00;;
3347;SDS011;1687;49.540;8.574;2023-04-06T07:44:21;24.00;;;9.80;;
3347;SDS011;1687;49.540;8.574;2023-04-06T07:46:47;20.63;;;8.83;;
3347;SDS011;1687;49.540;8.574;2023-04-06T07:49:13;23.60;;;10.53;;
3347;SDS011;1687;49.540;8.574;2023-04-06T07:51:39;17.10;;;8.40;;
3347;SDS011;1687;49.540;8.574;2023-04-06T07:54:05;22.17;;;9.67;;
3347;SDS011;1687;49.540;8.574;2023-04-06T07:56:31;21.63;;;9.10;;
3347;SDS011;1687;49.540;8.574;2023-04-06T07:58:56;17.40;;;7.70;;
3347;SDS011;1687;49.540;8.574;2023-04-06T08:01:23;19.83;;;9.60;;
3347;SDS011;1687;49.540;8.574;2023-04-06T08:03:50;22.10;;;8.83;;
3347;SDS011;1687;49.540;8.574;2023-04-06T08:06:16;13.97;;;8.10;;
3347;SDS011;1687;49.540;8.574;2023-04-06T08:08:42;22.53;;;9.60;;
3347;SDS011;1687;49.540;8.574;2023-04-06T08:11:08;21.40;;;9.53;;
3347;SDS011;1687;49.540;8.574;2023-04-06T08:13:35;21.10;;;10.60;;
3347;SDS011;1687;49.540;8.574;2023-04-06T08:16:01;16.07;;;8.80;;
3347;SDS011;1687;49.540;8.574;2023-04-06T08:18:27;14.17;;;7.43;;
3347;SDS011;1687;49.540;8.574;2023-04-06T08:20:54;16.67;;;8.37;;
3347;SDS011;1687;49.540;8.574;2023-04-06T08:23:21;25.83;;;9.10;;
3347;SDS011;1687;49.540;8.574;2023-04-06T08:25:47;19.83;;;7.77;;
3347;SDS011;1687;49.540;8.574;2023-04-06T08:28:13;21.07;;;10.70;;
3347;SDS011;1687;49.540;8.574;2023-04-06T08:30:42;18.20;;;9.33;;
3347;SDS011;1687;49.540;8.574;2023-04-06T08:33:08;13.47;;;6.77;;
3347;SDS011;1687;49.540;8.574;2023-04-06T08:35:34;15.90;;;9.17;;
3347;SDS011;1687;49.540;8.574;2023-04-06T08:38:00;18.93;;;9.27;;
3347;SDS011;1687;49.540;8.574;2023-04-06T08:40:25;18.83;;;9.57;;
3347;SDS011;1687;49.540;8.574;2023-04-06T08:42:54;14.57;;;8.50;;
3347;SDS011;1687;49.540;8.574;2023-04-06T08:45:21;17.87;;;9.40;;
3347;SDS011;1687;49.540;8.574;2023-04-06T08:47:48;19.80;;;9.37;;
3347;SDS011;1687;49.540;8.574;2023-04-06T08:50:17;22.27;;;9.03;;
3347;SDS011;1687;49.540;8.574;2023-04-06T08:52:46;16.57;;;8.83;;
3347;SDS011;1687;49.540;8.574;2023-04-06T08:55:13;19.63;;;9.20;;
3347;SDS011;1687;49.540;8.574;2023-04-06T08:57:40;19.50;;;9.17;;
3347;SDS011;1687;49.540;8.574;2023-04-06T09:00:07;14.40;;;8.20;;
3347;SDS011;1687;49.540;8.574;2023-04-06T09:02:38;26.60;;;10.43;;
3347;SDS011;1687;49.540;8.574;2023-04-06T09:05:07;24.60;;;11.57;;
3347;SDS011;1687;49.540;8.574;2023-04-06T09:07:35;16.73;;;8.33;;
3347;SDS011;1687;49.540;8.574;2023-04-06T09:10:02;25.50;;;8.50;;
3347;SDS011;1687;49.540;8.574;2023-04-06T09:12:30;23.83;;;8.40;;
3347;SDS011;1687;49.540;8.574;2023-04-06T09:14:57;19.07;;;9.50;;
3347;SDS011;1687;49.540;8.574;2023-04-06T09:17:27;20.70;;;9.67;;
3347;SDS011;1687;49.540;8.574;2023-04-06T09:19:55;21.50;;;10.03;;
3347;SDS011;1687;49.540;8.574;2023-04-06T09:22:21;20.10;;;9.00;;
3347;SDS011;1687;49.540;8.574;2023-04-06T09:24:50;15.07;;;8.33;;
3347;SDS011;1687;49.540;8.574;2023-04-06T09:27:17;21.23;;;10.30;;
3347;SDS011;1687;49.540;8.574;2023-04-06T09:30:02;16.30;;;8.87;;
3347;SDS011;1687;49.540;8.574;2023-04-06T09:32:43;15.17;;;8.67;;
3347;SDS011;1687;49.540;8.574;2023-04-06T09:35:18;21.27;;;9.03;;
3347;SDS011;1687;49.540;8.574;2023-04-06T09:37:46;18.97;;;8.27;;
3347;SDS011;1687;49.540;8.574;2023-04-06T09:40:12;18.53;;;10.50;;
3347;SDS011;1687;49.540;8.574;2023-04-06T09:42:41;22.40;;;9.03;;
3347;SDS011;1687;49.540;8.574;2023-04-06T09:45:07;34.00;;;14.53;;
3347;SDS011;1687;49.540;8.574;2023-04-06T09:47:35;37.63;;;17.00;;
3347;SDS011;1687;49.540;8.574;2023-04-06T09:50:02;24.10;;;13.17;;
3347;SDS011;1687;49.540;8.574;2023-04-06T09:52:32;27.70;;;8.80;;
3347;SDS011;1687;49.540;8.574;2023-04-06T09:55:03;19.13;;;8.90;;
3347;SDS011;1687;49.540;8.574;2023-04-06T10:00:23;21.63;;;10.60;;
3347;SDS011;1687;49.540;8.574;2023-04-06T10:05:41;15.00;;;7.83;;
3347;SDS011;1687;49.540;8.574;2023-04-06T10:08:17;26.00;;;9.60;;
3347;SDS011;1687;49.540;8.574;2023-04-06T10:10:44;19.53;;;8.37;;
3347;SDS011;1687;49.540;8.574;2023-04-06T10:13:10;15.30;;;10.00;;
3347;SDS011;1687;49.540;8.574;2023-04-06T10:15:37;14.63;;;7.63;;
3347;SDS011;1687;49.540;8.574;2023-04-06T10:18:05;15.33;;;7.80;;
3347;SDS011;1687;49.540;8.574;2023-04-06T10:20:39;16.67;;;7.60;;
3347;SDS011;1687;49.540;8.574;2023-04-06T10:23:13;18.73;;;8.57;;
3347;SDS011;1687;49.540;8.574;2023-04-06T10:25:56;15.50;;;7.43;;
3347;SDS011;1687;49.540;8.574;2023-04-06T10:28:24;14.53;;;7.10;;
3347;SDS011;1687;49.540;8.574;2023-04-06T10:30:57;12.43;;;7.90;;
3347;SDS011;1687;49.540;8.574;2023-04-06T10:33:27;21.37;;;8.50;;
3347;SDS011;1687;49.540;8.574;2023-04-06T10:35:53;22.87;;;9.73;;
3347;SDS011;1687;49.540;8.574;2023-04-06T10:38:20;26.23;;;8.00;;
3347;SDS011;1687;49.540;8.574;2023-04-06T10:40:47;11.53;;;6.97;;
3347;SDS011;1687;49.540;8.574;2023-04-06T10:43:18;20.13;;;7.60;;
3347;SDS011;1687;49.540;8.574;2023-04-06T10:45:52;15.43;;;7.40;;
3347;SDS011;1687;49.540;8.574;2023-04-06T10:48:21;11.50;;;5.30;;
3347;SDS011;1687;49.540;8.574;2023-04-06T10:50:49;11.83;;;6.53;;
3347;SDS011;1687;49.540;8.574;2023-04-06T10:53:26;14.70;;;7.77;;
3347;SDS011;1687;49.540;8.574;2023-04-06T10:55:54;24.53;;;7.70;;
3347;SDS011;1687;49.540;8.574;2023-04-06T10:58:24;20.57;;;8.03;;
3347;SDS011;1687;49.540;8.574;2023-04-06T11:00:51;13.90;;;6.47;;
3347;SDS011;1687;49.540;8.574;2023-04-06T11:03:17;11.13;;;6.10;;
3347;SDS011;1687;49.540;8.574;2023-04-06T11:05:46;15.93;;;6.30;;
3347;SDS011;1687;49.540;8.574;2023-04-06T11:08:24;9.73;;;5.63;;
3347;SDS011;1687;49.540;8.574;2023-04-06T11:16:30;7.40;;;4.40;;
3347;SDS011;1687;49.540;8.574;2023-04-06T11:18:58;15.80;;;6.20;;
3347;SDS011;1687;49.540;8.574;2023-04-06T11:21:39;10.20;;;5.60;;
3347;SDS011;1687;49.540;8.574;2023-04-06T11:24:24;18.23;;;5.73;;
3347;SDS011;1687;49.540;8.574;2023-04-06T11:26:51;11.47;;;5.60;;
3347;SDS011;1687;49.540;8.574;2023-04-06T11:29:22;9.30;;;5.67;;
3347;SDS011;1687;49.540;8.574;2023-04-06T11:31:52;10.80;;;4.93;;
3347;SDS011;1687;49.540;8.574;2023-04-06T11:34:20;10.33;;;5.73;;
3347;SDS011;1687;49.540;8.574;2023-04-06T11:36:48;10.70;;;6.40;;
3347;SDS011;1687;49.540;8.574;2023-04-06T11:39:22;8.87;;;5.23;;
3347;SDS011;1687;49.540;8.574;2023-04-06T11:41:52;13.60;;;6.27;;
3347;SDS011;1687;49.540;8.574;2023-04-06T11:44:32;15.97;;;7.70;;
3347;SDS011;1687;49.540;8.574;2023-04-06T11:47:00;19.27;;;6.30;;
3347;SDS011;1687;49.540;8.574;2023-04-06T11:49:31;20.60;;;6.57;;
3347;SDS011;1687;49.540;8.574;2023-04-06T11:52:00;13.57;;;8.10;;
3347;SDS011;1687;49.540;8.574;2023-04-06T11:54:36;15.97;;;7.07;;
3347;SDS011;1687;49.540;8.574;2023-04-06T11:57:03;17.13;;;7.00;;
3347;SDS011;1687;49.540;8.574;2023-04-06T11:59:33;14.67;;;7.00;;
3347;SDS011;1687;49.540;8.574;2023-04-06T12:02:03;15.60;;;7.47;;
3347;SDS011;1687;49.540;8.574;2023-04-06T12:04:29;15.03;;;7.27;;
3347;SDS011;1687;49.540;8.574;2023-04-06T12:06:55;14.80;;;8.07;;
3347;SDS011;1687;49.540;8.574;2023-04-06T12:09:22;14.70;;;7.50;;
3347;SDS011;1687;49.540;8.574;2023-04-06T12:11:47;15.73;;;7.70;;
3347;SDS011;1687;49.540;8.574;2023-04-06T12:14:13;16.30;;;8.20;;
3347;SDS011;1687;49.540;8.574;2023-04-06T12:16:39;15.00;;;7.30;;
3347;SDS011;1687;49.540;8.574;2023-04-06T12:19:05;12.67;;;7.10;;
3347;SDS011;1687;49.540;8.574;2023-04-06T12:21:31;16.47;;;7.40;;
3347;SDS011;1687;49.540;8.574;2023-04-06T12:23:58;13.37;;;7.07;;
3347;SDS011;1687;49.540;8.574;2023-04-06T12:26:24;14.57;;;8.10;;
3347;SDS011;1687;49.540;8.574;2023-04-06T12:28:50;16.33;;;7.23;;
3347;SDS011;1687;49.540;8.574;2023-04-06T12:31:20;16.40;;;7.47;;
3347;SDS011;1687;49.540;8.574;2023-04-06T12:33:47;14.97;;;7.90;;
3347;SDS011;1687;49.540;8.574;2023-04-06T12:36:17;13.97;;;7.80;;
3347;SDS011;1687;49.540;8.574;2023-04-06T12:38:44;12.87;;;7.23;;
3347;SDS011;1687;49.540;8.574;2023-04-06T12:41:12;17.50;;;7.30;;
3347;SDS011;1687;49.540;8.574;2023-04-06T12:43:41;15.77;;;7.70;;
3347;SDS011;1687;49.540;8.574;2023-04-06T12:46:08;12.57;;;7.10;;
3347;SDS011;1687;49.540;8.574;2023-04-06T12:48:34;12.90;;;7.53;;
3347;SDS011;1687;49.540;8.574;2023-04-06T12:51:01;16.60;;;7.60;;
3347;SDS011;1687;49.540;8.574;2023-04-06T12:53:31;17.23;;;8.30;;
3347;SDS011;1687;49.540;8.574;2023-04-06T12:55:58;17.27;;;9.00;;
3347;SDS011;1687;49.540;8.574;2023-04-06T12:58:25;10.70;;;6.30;;
3347;SDS011;1687;49.540;8.574;2023-04-06T13:00:54;11.40;;;6.53;;
3347;SDS011;1687;49.540;8.574;2023-04-06T13:03:21;16.13;;;8.20;;
3347;SDS011;1687;49.540;8.574;2023-04-06T13:05:47;14.50;;;7.17;;
3347;SDS011;1687;49.540;8.574;2023-04-06T13:08:15;12.80;;;6.93;;
3347;SDS011;1687;49.540;8.574;2023-04-06T13:10:43;24.43;;;8.40;;
3347;SDS011;1687;49.540;8.574;2023-04-06T13:13:11;14.00;;;7.20;;
3347;SDS011;1687;49.540;8.574;2023-04-06T13:15:36;13.83;;;7.43;;
3347;SDS011;1687;49.540;8.574;2023-04-06T13:18:02;14.37;;;7.07;;
3347;SDS011;1687;49.540;8.574;2023-04-06T13:20:28;11.40;;;6.57;;
3347;SDS011;1687;49.540;8.574;2023-04-06T13:22:54;14.50;;;6.67;;
3347;SDS011;1687;49.540;8.574;2023-04-06T13:25:20;12.77;;;6.93;;
3347;SDS011;1687;49.540;8.574;2023-04-06T13:27:46;19.97;;;7.40;;
3347;SDS011;1687;49.540;8.574;2023-04-06T13:30:13;10.53;;;6.20;;
3347;SDS011;1687;49.540;8.574;2023-04-06T13:32:40;10.90;;;6.43;;
3347;SDS011;1687;49.540;8.574;2023-04-06T13:35:06;15.63;;;7.07;;
3347;SDS011;1687;49.540;8.574;2023-04-06T13:37:32;14.30;;;6.93;;
3347;SDS011;1687;49.540;8.574;2023-04-06T13:39:59;15.40;;;7.57;;
3347;SDS011;1687;49.540;8.574;2023-04-06T13:42:25;14.80;;;6.93;;
3347;SDS011;1687;49.540;8.574;2023-04-06T13:44:52;19.63;;;7.70;;
3347;SDS011;1687;49.540;8.574;2023-04-06T13:47:18;13.87;;;6.70;;
3347;SDS011;1687;49.540;8.574;2023-04-06T13:49:45;13.63;;;6.97;;
3347;SDS011;1687;49.540;8.574;2023-04-06T13:52:15;13.80;;;6.70;;
3347;SDS011;1687;49.540;8.574;2023-04-06T13:54:41;14.20;;;6.43;;
3347;SDS011;1687;49.540;8.574;2023-04-06T13:57:07;12.73;;;6.73;;
3347;SDS011;1687;49.540;8.574;2023-04-06T13:59:33;16.10;;;7.10;;
3347;SDS011;1687;49.540;8.574;2023-04-06T14:02:00;15.00;;;7.47;;
3347;SDS011;1687;49.540;8.574;2023-04-06T14:04:31;14.50;;;7.63;;
3347;SDS011;1687;49.540;8.574;2023-04-06T14:06:57;11.40;;;6.27;;
3347;SDS011;1687;49.540;8.574;2023-04-06T14:09:23;12.50;;;6.37;;
3347;SDS011;1687;49.540;8.574;2023-04-06T14:11:49;12.17;;;6.00;;
3347;SDS011;1687;49.540;8.574;2023-04-06T14:14:16;10.73;;;5.50;;
3347;SDS011;1687;49.540;8.574;2023-04-06T14:16:42;12.50;;;6.50;;
3347;SDS011;1687;49.540;8.574;2023-04-06T14:19:11;11.57;;;6.53;;
3347;SDS011;1687;49.540;8.574;2023-04-06T14:21:40;10.53;;;5.60;;
3347;SDS011;1687;49.540;8.574;2023-04-06T14:24:08;12.67;;;6.03;;
3347;SDS011;1687;49.540;8.574;2023-04-06T14:26:37;13.03;;;5.97;;
3347;SDS011;1687;49.540;8.574;2023-04-06T14:29:04;10.73;;;4.80;;
3347;SDS011;1687;49.540;8.574;2023-04-06T14:31:30;14.37;;;6.30;;
3347;SDS011;1687;49.540;8.574;2023-04-06T14:33:57;15.93;;;6.70;;
3347;SDS011;1687;49.540;8.574;2023-04-06T14:36:25;14.87;;;7.23;;
3347;SDS011;1687;49.540;8.574;2023-04-06T14:38:53;8.83;;;5.13;;
3347;SDS011;1687;49.540;8.574;2023-04-06T14:41:19;11.77;;;6.00;;
3347;SDS011;1687;49.540;8.574;2023-04-06T14:43:48;9.87;;;6.33;;
3347;SDS011;1687;49.540;8.574;2023-04-06T14:46:13;11.40;;;5.53;;
3347;SDS011;1687;49.540;8.574;2023-04-06T14:48:40;8.83;;;5.13;;
3347;SDS011;1687;49.540;8.574;2023-04-06T14:51:06;9.97;;;4.70;;
3347;SDS011;1687;49.540;8.574;2023-04-06T14:53:32;19.87;;;5.50;;
3347;SDS011;1687;49.540;8.574;2023-04-06T14:55:58;12.43;;;5.87;;
3347;SDS011;1687;49.540;8.574;2023-04-06T14:58:24;11.20;;;5.63;;
3347;SDS011;1687;49.540;8.574;2023-04-06T15:00:57;11.90;;;5.53;;
3347;SDS011;1687;49.540;8.574;2023-04-06T15:03:24;11.57;;;5.60;;
3347;SDS011;1687;49.540;8.574;2023-04-06T15:05:51;14.10;;;6.33;;
3347;SDS011;1687;49.540;8.574;2023-04-06T15:08:17;10.80;;;5.83;;
3347;SDS011;1687;49.540;8.574;2023-04-06T15:10:45;11.73;;;6.77;;
3347;SDS011;1687;49.540;8.574;2023-04-06T15:13:12;16.43;;;6.67;;